Muren, Indiana
Current Conditions -  °F | °C
As of 4:15 PM on Monday 26 Jan 2015 (Local Time) from KHNB Reporting Station
Broken Clouds Broken Clouds  
Wind Chill: 21°   Ceiling: 2200
Heat Index: 28°   Visibility: 3mi
Dew Point: 21°   Wind: 7mph
Humidity: 74%   Direction: 240°WSW
Pressure: 29.94"   Gusts: NA
Location:  38.3488°N, 87.2217°W
Report Text: KHNB 262215Z AUTO 24006KT 3SM SCT015 BKN022 BKN031 M02/M06 A2994 RMK AO1
Loading
Personal Weather Stations






























Interactive Weather Map New forecast layout! Learn more

10-Day Weather Forecast

Advertisements
Track Severe Weather on mobile